Jackson, MS (39207)

2:04 AM CDT on July 25, 2014 (GMT -0500)
Brinkly (KMSJACKS3) Elev 344 ft | 32.35 °N, 90.20 °W | Change Station

Current weather conditions updated 1 minute ago

Clear
Clear
74.5 °F
Feels Like 71 °F
N
2.7
Wind Variable Wind from NNW

Today is forecast to be nearly the same temperature as yesterday.

Today
High -- | Low -- °F
--% Chance of Precip.
Yesterday
High -- | Low -- °F
Precip. -- in
6:10 AM 8:03 PM
Waning Crescent, 2% visible
Pressure 29.99 in
Visibility 10.0 miles
Clouds Clear
Heat Index 71 °F
Dew Point 74 °F
Humidity 98%
Rainfall 0.00 in
Snow Depth Not available.
UV 0 out of 12
Pollen 3.40 out of 12
Air Quality Not available.
Flu Activity Not available.
METAR KHKS 250653Z 03003KT 10SM CLR 24/19 A3001 RMK AO2 SLP154 T02390189

More Conditions Fewer Conditions

Pressure 29.99 in
Visibility 10.0 miles
Clouds Clear
Heat Index 71 °F
Dew Point 74 °F
Humidity 98%
Rainfall 0.00 in
Snow Depth Not available.
UV 0 out of 12
Pollen 3.40 out of 12
Air Quality Not available.
Flu Activity Not available.
METAR KHKS 250653Z 03003KT 10SM CLR 24/19 A3001 RMK AO2 SLP154 T02390189

More Conditions Fewer Conditions

10-Day Weather Forecast

Almanac

Astronomy

Jul. 25, 2014 Rise Set
Actual Time 6:10 AM CDT 8:03 PM CDT
Civil Twilight 5:43 AM CDT 8:30 PM CDT
Nautical Twilight 5:10 AM CDT 9:03 PM CDT
Astronomical Twilight 4:35 AM CDT 9:38 PM CDT
Moon 5:08 AM CDT 7:03 PM CDT
Length of Visible Light 14h 46m
Length of Day
13h 52m
Tomorrow will be 1m 19s shorter.
Waning Crescent, 2% of the Moon is Illuminated
Today
Waning Crescent
Jul 26
New
Aug 3
First Quarter
Aug 10
Full
Aug 17
Last Quarter

Today's Extremes

State Highs State Lows

Community

WunderPhotos

Upload Photos

1,737,266 photos uploaded!

Nearby

Snow Depth

Station Depth Elevation
No new snow has been reported.

Earthquake Activity

City Distance Mag. Time & Date
No recent earthquake activity has been reported nearby.
Minimum magnitude displayed is 2.5.

Coastal Water Temperatures

Place Temperature
No Stations Reporting

Nearby Weather Stations

Station Location Temp. Heat Index Dew Point Humidity Wind Precip. Elev Updated Type
Brinkly, Jackson, MS 74.5 °F 71 °F 74 °F 98% NNW  at  2.7 mph - / hr 344 ft 2:02 AM CDT Normal
Florence, FLORENCE, MS 74.1 °F 71 °F 73 °F 96% ENE  at  0.0 mph - / hr 367 ft 1:57 AM CDT Normal
Country Meadows, Brandon, MS 73.6 °F 71 °F 71 °F 91% ENE  at  0.0 mph - / hr 367 ft 1:59 AM CDT Normal
Raintree Place, Brandon, MS 74.1 °F 72 °F 71 °F 91% NE  at  1.1 mph - / hr 410 ft 1:53 AM CDT Normal
APRSWXNET Brandon MS , Brandon, MS 76 °F 76 °F 72 °F 88% ENE  at  0 mph 0.00 in / hr 316 ft 1:05 AM CDT MADIS
Red Oak, Gluckstadt, MS 72.6 °F 70 °F 69 °F 89% NNW  at  0.0 mph 0.00 in / hr 289 ft 2:04 AM CDT Rapid Fire
May Estates, Brandon, MS 74.0 °F 72 °F 71 °F 90% WNW  at  0.0 mph 0.00 in / hr 380 ft 2:04 AM CDT Rapid Fire
Tank, Crystal Springs, MS 73.0 °F - 72 °F 96% ESE  at  0.0 mph - / hr 338 ft 1:51 AM CDT Normal

Show More Stations Show Fewer Stations